Emu Arrow — C6OR4 — position and weather

sailwx.info

Track history (hours):
 
Tides and Currents Weather Stations Pressure Air Temp Water Temp Dewpoint Dewpoint Depression Visibility Wind Speed Wind Dir Waves Ship Positions

Emu Arrow

Last reported at 2016-Jan-23 07:31 UTC. Time now 2016-Feb-10 22:08 UTC.
Position S 26°15' E 153°41'.
Warning: this ship's position is 18 days out of date.

Length 200 m; draft 9.2 m.

Type: Cargo ship. MMSI: 309805000.

Date/timePositionNaut miles runAvg speedWind from/ knotsBaromVisibWave heightAir tempDewpointWater temp
2016-Jan-23 07:31S 26°15' E 153°41'1111.3
2016-Jan-23 06:33S 26°26' E 153°43'1211.6
2016-Jan-23 05:31S 26°38' E 153°43'1111.1
2016-Jan-23 04:33S 26°48' E 153°44'1110.6
2016-Jan-23 03:34S 26°59' E 153°45'1010.3
2016-Jan-23 02:34S 27°09' E 153°45'1010.1
2016-Jan-23 01:33S 27°19' E 153°46'10 9.7
2016-Jan-23 00:33S 27°29' E 153°46'9 9.3
2016-Jan-22 23:33S 27°38' E 153°47'9 9.0
2016-Jan-22 22:33S 27°47' E 153°47'9 9.0
2016-Jan-22 21:33S 27°56' E 153°47'9 9.0
2016-Jan-22 20:33S 28°05' E 153°48'9 8.7
2016-Jan-22 19:32S 28°14' E 153°48'16 8.0
2016-Jan-22 17:31S 28°30' E 153°49'7 7.6
2016-Jan-22 16:34S 28°37' E 153°49'239 8.9
2016-Jan-21 13:33S 32°29' E 152°39'1211.7
2016-Jan-21 12:34S 32°40' E 152°34'1211.8
2016-Jan-21 11:34S 32°49' E 152°26'1212.2
2016-Jan-21 10:34S 32°59' E 152°17'1212.0
2016-Jan-21 09:33S 33°09' E 152°09'1211.7
2016-Jan-21 08:34S 33°19' E 152°02'1111.3
2016-Jan-21 07:33S 33°28' E 151°55'1110.8
2016-Jan-21 06:34S 33°38' E 151°48'1110.6
2016-Jan-21 05:34S 33°47' E 151°42'1110.8
2016-Jan-21 04:34S 33°55' E 151°34'1110.9
2016-Jan-21 03:33S 34°03' E 151°25'3210.5
2016-Jan-21 00:33S 34°25' E 150°57'4 0.2
2016-Jan-19 21:32S 34°22' E 151°01'0 0.0
2016-Jan-19 20:29S 34°22' E 151°01'0 0.0
2016-Jan-19 19:32S 34°22' E 151°01'0 0.0
2016-Jan-19 18:32S 34°22' E 151°01'0 0.0
2016-Jan-19 17:32S 34°22' E 151°01'0 0.0
2016-Jan-19 16:32S 34°22' E 151°01'0 0.0
2016-Jan-19 15:32S 34°22' E 151°01'0 0.0
2016-Jan-19 14:32S 34°22' E 151°01'0 0.0
2016-Jan-19 13:32S 34°22' E 151°01'0 0.0
2016-Jan-19 12:32S 34°22' E 151°01'0 0.0
2016-Jan-19 11:32S 34°22' E 151°01'0 0.0
2016-Jan-19 10:32S 34°22' E 151°01'0 0.0
2016-Jan-19 09:29S 34°22' E 151°01'0 0.0
2016-Jan-19 08:32S 34°22' E 151°01'0 0.0
2016-Jan-19 07:32S 34°22' E 151°01'0 0.0
2016-Jan-19 06:23S 34°22' E 151°01'0 0.0
2016-Jan-19 05:32S 34°22' E 151°01'0 0.0
2016-Jan-18 15:32S 34°22' E 151°01'0 0.0
2016-Jan-18 09:32S 34°22' E 151°01'0 0.1
2016-Jan-18 08:32S 34°22' E 151°01'0 0.0
2016-Jan-18 07:29S 34°22' E 151°01'90 2.0
2016-Jan-16 10:12S 33°02' E 151°50'710.7
2016-Jan-16 09:33S 32°55' E 151°49'2 2.3
2016-Jan-16 08:33S 32°55' E 151°46'0 0.0
2016-Jan-16 07:33S 32°55' E 151°46'0 0.0
2016-Jan-16 06:33S 32°55' E 151°46'0 0.0
2016-Jan-16 05:33S 32°55' E 151°46'0 0.0
2016-Jan-16 04:33S 32°55' E 151°46'0 0.0
2016-Jan-16 03:30S 32°55' E 151°46'0 0.0
2016-Jan-16 02:33S 32°55' E 151°46'0 0.0
2016-Jan-16 01:33S 32°55' E 151°46'0 0.0
2016-Jan-16 00:30S 32°55' E 151°46'0 0.0
2016-Jan-15 23:33S 32°55' E 151°46'0 0.0
2016-Jan-15 22:30S 32°55' E 151°46'0 0.0
2016-Jan-15 21:30S 32°55' E 151°46'0 0.0
2016-Jan-15 20:33S 32°55' E 151°46'0 0.0
2016-Jan-15 19:30S 32°55' E 151°46'0 0.0
2016-Jan-15 18:33S 32°55' E 151°46'0 0.0
2016-Jan-15 17:33S 32°55' E 151°46'0 0.0
2016-Jan-15 16:33S 32°55' E 151°46'0 0.0
2016-Jan-15 15:33S 32°55' E 151°46'0 0.0
2016-Jan-15 14:33S 32°55' E 151°46'0 0.0
2016-Jan-15 13:33S 32°55' E 151°46'0 0.0
2016-Jan-15 12:30S 32°55' E 151°46'0 0.0
2016-Jan-15 11:33S 32°55' E 151°46'0 0.0
2016-Jan-15 10:30S 32°55' E 151°46'0 0.0
2016-Jan-15 09:30S 32°55' E 151°46'0 0.0
2016-Jan-15 08:33S 32°55' E 151°46'0 0.0
2016-Jan-15 07:33S 32°55' E 151°46'0 0.0
2016-Jan-15 06:33S 32°55' E 151°46'0 0.0
2016-Jan-15 05:33S 32°55' E 151°46'0 0.0
2016-Jan-15 04:33S 32°55' E 151°46'0 0.0
2016-Jan-15 03:33S 32°55' E 151°46'0 0.0
2016-Jan-15 02:33S 32°55' E 151°46'0 0.0
2016-Jan-15 01:33S 32°55' E 151°46'0 0.0
2016-Jan-15 00:33S 32°55' E 151°46'0 0.0
2016-Jan-14 23:33S 32°55' E 151°46'0 0.0
2016-Jan-14 22:33S 32°55' E 151°46'0 0.0
2016-Jan-14 21:33S 32°55' E 151°46'0 0.0
2016-Jan-14 20:33S 32°55' E 151°46'0 0.0
2016-Jan-14 19:33S 32°55' E 151°46'0 0.0
2016-Jan-14 18:30S 32°55' E 151°46'0 0.0
2016-Jan-14 17:33S 32°55' E 151°46'0 0.0
2016-Jan-14 16:33S 32°55' E 151°46'0 0.0
2016-Jan-14 15:33S 32°55' E 151°46'0 0.0
2016-Jan-14 14:30S 32°55' E 151°46'0 0.0
2016-Jan-14 13:33S 32°55' E 151°46'0 0.0
2016-Jan-14 12:33S 32°55' E 151°46'0 0.0
2016-Jan-14 11:33S 32°55' E 151°46'0 0.0
2016-Jan-14 10:33S 32°55' E 151°46'0 0.0
2016-Jan-14 09:33S 32°55' E 151°46'0 0.0
2016-Jan-14 08:33S 32°55' E 151°46'0 0.0
2016-Jan-14 07:33S 32°55' E 151°46'0 0.0
2016-Jan-14 06:33S 32°55' E 151°46'0 0.0
2016-Jan-14 05:33S 32°55' E 151°46'0 0.0
2016-Jan-14 04:33S 32°55' E 151°46'0 0.0
2016-Jan-14 03:30S 32°55' E 151°46'0 0.0
2016-Jan-14 02:30S 32°55' E 151°46'0 0.0
2016-Jan-14 01:33S 32°55' E 151°46'0 0.0
2016-Jan-14 00:33S 32°55' E 151°46'0 0.0
2016-Jan-13 23:33S 32°55' E 151°46'3 3.0
2016-Jan-13 22:33S 32°55' E 151°50'10 9.5
2016-Jan-13 21:33S 33°04' E 151°52'7 6.8
2016-Jan-13 20:33S 33°11' E 151°50'8 8.3
2016-Jan-13 19:33S 33°18' E 151°45'9 8.8
2016-Jan-13 18:34S 33°22' E 151°36'1 1.0
2016-Jan-13 17:33S 33°22' E 151°35'0 0.0
2016-Jan-13 16:27S 33°22' E 151°35'0 0.1
2016-Jan-13 15:33S 33°22' E 151°35'0 0.1
2016-Jan-13 14:33S 33°22' E 151°35'0 0.1
2016-Jan-13 13:33S 33°22' E 151°35'0 0.0
2016-Jan-13 12:33S 33°22' E 151°35'0 0.1
2016-Jan-13 11:33S 33°22' E 151°35'0 0.0
2016-Jan-13 09:30S 33°22' E 151°35'  
Track history (hours):
 
Tides and Currents Weather Stations Pressure Air Temp Water Temp Dewpoint Dewpoint Depression Visibility Wind Speed Wind Dir Waves Ship Positions

Emu Arrow

Last reported at 2016-Jan-23 07:31 UTC. Time now 2016-Feb-10 22:08 UTC.
Position S 26°15' E 153°41'.
Warning: this ship's position is 18 days out of date.

Length 200 m; draft 9.2 m.

Type: Cargo ship. MMSI: 309805000.

Date/timePositionNaut miles runAvg speedWind from/ knotsBaromVisibWave heightAir tempDewpointWater temp
2016-Jan-23 07:31S 26°15' E 153°41'1111.3
2016-Jan-23 06:33S 26°26' E 153°43'1211.6
2016-Jan-23 05:31S 26°38' E 153°43'1111.1
2016-Jan-23 04:33S 26°48' E 153°44'1110.6
2016-Jan-23 03:34S 26°59' E 153°45'1010.3
2016-Jan-23 02:34S 27°09' E 153°45'1010.1
2016-Jan-23 01:33S 27°19' E 153°46'10 9.7
2016-Jan-23 00:33S 27°29' E 153°46'9 9.3
2016-Jan-22 23:33S 27°38' E 153°47'9 9.0
2016-Jan-22 22:33S 27°47' E 153°47'9 9.0
2016-Jan-22 21:33S 27°56' E 153°47'9 9.0
2016-Jan-22 20:33S 28°05' E 153°48'9 8.7
2016-Jan-22 19:32S 28°14' E 153°48'16 8.0
2016-Jan-22 17:31S 28°30' E 153°49'7 7.6
2016-Jan-22 16:34S 28°37' E 153°49'239 8.9
2016-Jan-21 13:33S 32°29' E 152°39'1211.7
2016-Jan-21 12:34S 32°40' E 152°34'1211.8
2016-Jan-21 11:34S 32°49' E 152°26'1212.2
2016-Jan-21 10:34S 32°59' E 152°17'1212.0
2016-Jan-21 09:33S 33°09' E 152°09'1211.7
2016-Jan-21 08:34S 33°19' E 152°02'1111.3
2016-Jan-21 07:33S 33°28' E 151°55'1110.8
2016-Jan-21 06:34S 33°38' E 151°48'1110.6
2016-Jan-21 05:34S 33°47' E 151°42'1110.8
2016-Jan-21 04:34S 33°55' E 151°34'1110.9
2016-Jan-21 03:33S 34°03' E 151°25'3210.5
2016-Jan-21 00:33S 34°25' E 150°57'4 0.2
2016-Jan-19 21:32S 34°22' E 151°01'0 0.0
2016-Jan-19 20:29S 34°22' E 151°01'0 0.0
2016-Jan-19 19:32S 34°22' E 151°01'0 0.0
2016-Jan-19 18:32S 34°22' E 151°01'0 0.0
2016-Jan-19 17:32S 34°22' E 151°01'0 0.0
2016-Jan-19 16:32S 34°22' E 151°01'0 0.0
2016-Jan-19 15:32S 34°22' E 151°01'0 0.0
2016-Jan-19 14:32S 34°22' E 151°01'0 0.0
2016-Jan-19 13:32S 34°22' E 151°01'0 0.0
2016-Jan-19 12:32S 34°22' E 151°01'0 0.0
2016-Jan-19 11:32S 34°22' E 151°01'0 0.0
2016-Jan-19 10:32S 34°22' E 151°01'0 0.0
2016-Jan-19 09:29S 34°22' E 151°01'0 0.0
2016-Jan-19 08:32S 34°22' E 151°01'0 0.0
2016-Jan-19 07:32S 34°22' E 151°01'0 0.0
2016-Jan-19 06:23S 34°22' E 151°01'0 0.0
2016-Jan-19 05:32S 34°22' E 151°01'0 0.0
2016-Jan-18 15:32S 34°22' E 151°01'0 0.0
2016-Jan-18 09:32S 34°22' E 151°01'0 0.1
2016-Jan-18 08:32S 34°22' E 151°01'0 0.0
2016-Jan-18 07:29S 34°22' E 151°01'90 2.0
2016-Jan-16 10:12S 33°02' E 151°50'710.7
2016-Jan-16 09:33S 32°55' E 151°49'2 2.3
2016-Jan-16 08:33S 32°55' E 151°46'0 0.0
2016-Jan-16 07:33S 32°55' E 151°46'0 0.0
2016-Jan-16 06:33S 32°55' E 151°46'0 0.0
2016-Jan-16 05:33S 32°55' E 151°46'0 0.0
2016-Jan-16 04:33S 32°55' E 151°46'0 0.0
2016-Jan-16 03:30S 32°55' E 151°46'0 0.0
2016-Jan-16 02:33S 32°55' E 151°46'0 0.0
2016-Jan-16 01:33S 32°55' E 151°46'0 0.0
2016-Jan-16 00:30S 32°55' E 151°46'0 0.0
2016-Jan-15 23:33S 32°55' E 151°46'0 0.0
2016-Jan-15 22:30S 32°55' E 151°46'0 0.0
2016-Jan-15 21:30S 32°55' E 151°46'0 0.0
2016-Jan-15 20:33S 32°55' E 151°46'0 0.0
2016-Jan-15 19:30S 32°55' E 151°46'0 0.0
2016-Jan-15 18:33S 32°55' E 151°46'0 0.0
2016-Jan-15 17:33S 32°55' E 151°46'0 0.0
2016-Jan-15 16:33S 32°55' E 151°46'0 0.0
2016-Jan-15 15:33S 32°55' E 151°46'0 0.0
2016-Jan-15 14:33S 32°55' E 151°46'0 0.0
2016-Jan-15 13:33S 32°55' E 151°46'0 0.0
2016-Jan-15 12:30S 32°55' E 151°46'0 0.0
2016-Jan-15 11:33S 32°55' E 151°46'0 0.0
2016-Jan-15 10:30S 32°55' E 151°46'0 0.0
2016-Jan-15 09:30S 32°55' E 151°46'0 0.0
2016-Jan-15 08:33S 32°55' E 151°46'0 0.0
2016-Jan-15 07:33S 32°55' E 151°46'0 0.0
2016-Jan-15 06:33S 32°55' E 151°46'0 0.0
2016-Jan-15 05:33S 32°55' E 151°46'0 0.0
2016-Jan-15 04:33S 32°55' E 151°46'0 0.0
2016-Jan-15 03:33S 32°55' E 151°46'0 0.0
2016-Jan-15 02:33S 32°55' E 151°46'0 0.0
2016-Jan-15 01:33S 32°55' E 151°46'0 0.0
2016-Jan-15 00:33S 32°55' E 151°46'0 0.0
2016-Jan-14 23:33S 32°55' E 151°46'0 0.0
2016-Jan-14 22:33S 32°55' E 151°46'0 0.0
2016-Jan-14 21:33S 32°55' E 151°46'0 0.0
2016-Jan-14 20:33S 32°55' E 151°46'0 0.0
2016-Jan-14 19:33S 32°55' E 151°46'0 0.0
2016-Jan-14 18:30S 32°55' E 151°46'0 0.0
2016-Jan-14 17:33S 32°55' E 151°46'0 0.0
2016-Jan-14 16:33S 32°55' E 151°46'0 0.0
2016-Jan-14 15:33S 32°55' E 151°46'0 0.0
2016-Jan-14 14:30S 32°55' E 151°46'0 0.0
2016-Jan-14 13:33S 32°55' E 151°46'0 0.0
2016-Jan-14 12:33S 32°55' E 151°46'0 0.0
2016-Jan-14 11:33S 32°55' E 151°46'0 0.0
2016-Jan-14 10:33S 32°55' E 151°46'0 0.0
2016-Jan-14 09:33S 32°55' E 151°46'0 0.0
2016-Jan-14 08:33S 32°55' E 151°46'0 0.0
2016-Jan-14 07:33S 32°55' E 151°46'0 0.0
2016-Jan-14 06:33S 32°55' E 151°46'0 0.0
2016-Jan-14 05:33S 32°55' E 151°46'0 0.0
2016-Jan-14 04:33S 32°55' E 151°46'0 0.0
2016-Jan-14 03:30S 32°55' E 151°46'0 0.0
2016-Jan-14 02:30S 32°55' E 151°46'0 0.0
2016-Jan-14 01:33S 32°55' E 151°46'0 0.0
2016-Jan-14 00:33S 32°55' E 151°46'0 0.0
2016-Jan-13 23:33S 32°55' E 151°46'3 3.0
2016-Jan-13 22:33S 32°55' E 151°50'10 9.5
2016-Jan-13 21:33S 33°04' E 151°52'7 6.8
2016-Jan-13 20:33S 33°11' E 151°50'8 8.3
2016-Jan-13 19:33S 33°18' E 151°45'9 8.8
2016-Jan-13 18:34S 33°22' E 151°36'1 1.0
2016-Jan-13 17:33S 33°22' E 151°35'0 0.0
2016-Jan-13 16:27S 33°22' E 151°35'0 0.1
2016-Jan-13 15:33S 33°22' E 151°35'0 0.1
2016-Jan-13 14:33S 33°22' E 151°35'0 0.1
2016-Jan-13 13:33S 33°22' E 151°35'0 0.0
2016-Jan-13 12:33S 33°22' E 151°35'0 0.1
2016-Jan-13 11:33S 33°22' E 151°35'0 0.0
2016-Jan-13 09:30S 33°22' E 151°35'  

Dump ship's entire track history